sensor_id;sensor_type;location;lat;lon;timestamp;temperature;humidity
21662;DHT22;10992;48.170;8.596;2022-11-18T00:01:18;6.00;99.90
21662;DHT22;10992;48.170;8.596;2022-11-18T00:03:46;6.00;99.90
21662;DHT22;10992;48.170;8.596;2022-11-18T00:06:18;5.90;99.90
21662;DHT22;10992;48.170;8.596;2022-11-18T00:08:45;5.90;99.90
21662;DHT22;10992;48.170;8.596;2022-11-18T00:11:14;5.90;99.90
21662;DHT22;10992;48.170;8.596;2022-11-18T00:14:00;5.90;99.90
21662;DHT22;10992;48.170;8.596;2022-11-18T00:16:54;5.90;99.90
21662;DHT22;10992;48.170;8.596;2022-11-18T00:19:23;5.90;99.90
21662;DHT22;10992;48.170;8.596;2022-11-18T00:21:51;5.90;99.90
21662;DHT22;10992;48.170;8.596;2022-11-18T00:24:18;5.90;99.90
21662;DHT22;10992;48.170;8.596;2022-11-18T00:26:45;5.90;99.90
21662;DHT22;10992;48.170;8.596;2022-11-18T00:29:12;6.00;99.90
21662;DHT22;10992;48.170;8.596;2022-11-18T00:31:40;6.00;99.90
21662;DHT22;10992;48.170;8.596;2022-11-18T00:34:10;6.00;99.90
21662;DHT22;10992;48.170;8.596;2022-11-18T00:36:39;6.00;99.90
21662;DHT22;10992;48.170;8.596;2022-11-18T00:39:06;6.00;99.90
21662;DHT22;10992;48.170;8.596;2022-11-18T00:41:33;6.00;99.90
21662;DHT22;10992;48.170;8.596;2022-11-18T00:44:18;6.00;99.90
21662;DHT22;10992;48.170;8.596;2022-11-18T00:46:45;6.10;99.90
21662;DHT22;10992;48.170;8.596;2022-11-18T00:49:12;6.20;99.90
21662;DHT22;10992;48.170;8.596;2022-11-18T00:51:39;6.20;99.90
21662;DHT22;10992;48.170;8.596;2022-11-18T00:54:06;6.20;99.90
21662;DHT22;10992;48.170;8.596;2022-11-18T00:56:33;6.30;99.90
21662;DHT22;10992;48.170;8.596;2022-11-18T00:59:00;6.40;99.90
21662;DHT22;10992;48.170;8.596;2022-11-18T01:01:27;6.40;99.90
21662;DHT22;10992;48.170;8.596;2022-11-18T01:03:54;6.30;99.90
21662;DHT22;10992;48.170;8.596;2022-11-18T01:06:21;6.30;99.90
21662;DHT22;10992;48.170;8.596;2022-11-18T01:08:48;6.30;99.90
21662;DHT22;10992;48.170;8.596;2022-11-18T01:11:15;6.30;99.90
21662;DHT22;10992;48.170;8.596;2022-11-18T01:14:01;6.30;99.90
21662;DHT22;10992;48.170;8.596;2022-11-18T01:16:28;6.30;99.90
21662;DHT22;10992;48.170;8.596;2022-11-18T01:18:56;6.30;99.90
21662;DHT22;10992;48.170;8.596;2022-11-18T01:21:23;6.30;99.90
21662;DHT22;10992;48.170;8.596;2022-11-18T01:23:50;6.30;99.90
21662;DHT22;10992;48.170;8.596;2022-11-18T01:26:17;6.30;99.90
21662;DHT22;10992;48.170;8.596;2022-11-18T01:28:44;6.30;99.90
21662;DHT22;10992;48.170;8.596;2022-11-18T01:31:14;6.30;99.90
21662;DHT22;10992;48.170;8.596;2022-11-18T01:33:42;6.30;99.90
21662;DHT22;10992;48.170;8.596;2022-11-18T01:36:20;6.30;99.90
21662;DHT22;10992;48.170;8.596;2022-11-18T01:38:48;6.30;99.90
21662;DHT22;10992;48.170;8.596;2022-11-18T01:41:16;6.40;99.90
21662;DHT22;10992;48.170;8.596;2022-11-18T01:46:14;6.40;99.90
21662;DHT22;10992;48.170;8.596;2022-11-18T01:48:42;6.30;99.90
21662;DHT22;10992;48.170;8.596;2022-11-18T01:51:14;6.30;99.90
21662;DHT22;10992;48.170;8.596;2022-11-18T01:53:49;6.30;99.90
21662;DHT22;10992;48.170;8.596;2022-11-18T01:56:22;6.30;99.90
21662;DHT22;10992;48.170;8.596;2022-11-18T01:58:55;6.20;99.90
21662;DHT22;10992;48.170;8.596;2022-11-18T02:01:23;6.20;99.90
21662;DHT22;10992;48.170;8.596;2022-11-18T02:03:52;6.10;99.90
21662;DHT22;10992;48.170;8.596;2022-11-18T02:06:20;6.20;99.90
21662;DHT22;10992;48.170;8.596;2022-11-18T02:08:48;6.20;99.90
21662;DHT22;10992;48.170;8.596;2022-11-18T02:11:15;6.20;99.90
21662;DHT22;10992;48.170;8.596;2022-11-18T02:14:06;6.20;99.90
21662;DHT22;10992;48.170;8.596;2022-11-18T02:16:51;6.20;99.90
21662;DHT22;10992;48.170;8.596;2022-11-18T02:20:01;6.10;99.90
21662;DHT22;10992;48.170;8.596;2022-11-18T02:30:41;6.00;99.90
21662;DHT22;10992;48.170;8.596;2022-11-18T02:33:14;6.00;99.90
21662;DHT22;10992;48.170;8.596;2022-11-18T02:35:55;6.00;99.90
21662;DHT22;10992;48.170;8.596;2022-11-18T02:38:33;6.10;99.90
21662;DHT22;10992;48.170;8.596;2022-11-18T02:41:08;6.10;99.90
21662;DHT22;10992;48.170;8.596;2022-11-18T02:43:40;6.20;99.90
21662;DHT22;10992;48.170;8.596;2022-11-18T02:46:12;6.20;99.90
21662;DHT22;10992;48.170;8.596;2022-11-18T02:48:45;6.20;99.90
21662;DHT22;10992;48.170;8.596;2022-11-18T02:51:16;6.20;99.90
21662;DHT22;10992;48.170;8.596;2022-11-18T02:53:45;6.10;99.90
21662;DHT22;10992;48.170;8.596;2022-11-18T02:56:14;6.10;99.90
21662;DHT22;10992;48.170;8.596;2022-11-18T02:58:42;6.10;99.90
21662;DHT22;10992;48.170;8.596;2022-11-18T03:01:27;6.10;99.90
21662;DHT22;10992;48.170;8.596;2022-11-18T03:03:55;6.10;99.90
21662;DHT22;10992;48.170;8.596;2022-11-18T03:06:37;6.10;99.90
21662;DHT22;10992;48.170;8.596;2022-11-18T03:17:45;6.10;99.90
21662;DHT22;10992;48.170;8.596;2022-11-18T03:28:04;6.20;99.90
21662;DHT22;10992;48.170;8.596;2022-11-18T03:30:35;6.20;99.90
21662;DHT22;10992;48.170;8.596;2022-11-18T03:33:17;6.20;99.90
21662;DHT22;10992;48.170;8.596;2022-11-18T03:35:48;6.20;99.90
21662;DHT22;10992;48.170;8.596;2022-11-18T03:38:19;6.10;99.90
21662;DHT22;10992;48.170;8.596;2022-11-18T03:40:52;6.10;99.90
21662;DHT22;10992;48.170;8.596;2022-11-18T03:43:26;6.10;99.90
21662;DHT22;10992;48.170;8.596;2022-11-18T03:48:35;6.10;99.90
21662;DHT22;10992;48.170;8.596;2022-11-18T03:51:10;6.00;99.90
21662;DHT22;10992;48.170;8.596;2022-11-18T03:53:43;5.90;99.90
21662;DHT22;10992;48.170;8.596;2022-11-18T03:56:18;5.90;99.90
21662;DHT22;10992;48.170;8.596;2022-11-18T03:59:01;5.90;99.90
21662;DHT22;10992;48.170;8.596;2022-11-18T04:01:43;5.80;99.90
21662;DHT22;10992;48.170;8.596;2022-11-18T04:04:12;5.90;99.90
21662;DHT22;10992;48.170;8.596;2022-11-18T04:09:40;5.80;99.90
21662;DHT22;10992;48.170;8.596;2022-11-18T04:12:12;5.70;99.90
21662;DHT22;10992;48.170;8.596;2022-11-18T04:14:41;5.70;99.90
21662;DHT22;10992;48.170;8.596;2022-11-18T04:17:14;5.70;99.90
21662;DHT22;10992;48.170;8.596;2022-11-18T04:19:42;5.70;99.90
21662;DHT22;10992;48.170;8.596;2022-11-18T04:22:09;5.70;99.90
21662;DHT22;10992;48.170;8.596;2022-11-18T04:24:36;5.60;99.90
21662;DHT22;10992;48.170;8.596;2022-11-18T04:27:03;5.60;99.90
21662;DHT22;10992;48.170;8.596;2022-11-18T04:29:31;5.60;99.90
21662;DHT22;10992;48.170;8.596;2022-11-18T04:31:59;5.60;99.90
21662;DHT22;10992;48.170;8.596;2022-11-18T04:34:26;5.60;99.90
21662;DHT22;10992;48.170;8.596;2022-11-18T04:36:53;5.60;99.90
21662;DHT22;10992;48.170;8.596;2022-11-18T04:39:20;5.50;99.90
21662;DHT22;10992;48.170;8.596;2022-11-18T04:41:47;5.60;99.90
21662;DHT22;10992;48.170;8.596;2022-11-18T04:44:28;5.60;99.90
21662;DHT22;10992;48.170;8.596;2022-11-18T04:46:57;5.60;99.90
21662;DHT22;10992;48.170;8.596;2022-11-18T04:49:24;5.60;99.90
21662;DHT22;10992;48.170;8.596;2022-11-18T04:51:52;5.50;99.90
21662;DHT22;10992;48.170;8.596;2022-11-18T04:54:19;5.50;99.90
21662;DHT22;10992;48.170;8.596;2022-11-18T04:56:47;5.50;99.90
21662;DHT22;10992;48.170;8.596;2022-11-18T04:59:18;5.50;99.90
21662;DHT22;10992;48.170;8.596;2022-11-18T05:01:47;5.50;99.90
21662;DHT22;10992;48.170;8.596;2022-11-18T05:04:16;5.50;99.90
21662;DHT22;10992;48.170;8.596;2022-11-18T05:06:43;5.50;99.90
21662;DHT22;10992;48.170;8.596;2022-11-18T05:09:10;5.40;99.90
21662;DHT22;10992;48.170;8.596;2022-11-18T05:11:37;5.40;99.90
21662;DHT22;10992;48.170;8.596;2022-11-18T05:14:28;5.50;99.90
21662;DHT22;10992;48.170;8.596;2022-11-18T05:16:56;5.50;99.90
21662;DHT22;10992;48.170;8.596;2022-11-18T05:19:23;5.40;99.90
21662;DHT22;10992;48.170;8.596;2022-11-18T05:21:50;5.40;99.90
21662;DHT22;10992;48.170;8.596;2022-11-18T05:24:17;5.50;99.90
21662;DHT22;10992;48.170;8.596;2022-11-18T05:26:44;5.50;99.90
21662;DHT22;10992;48.170;8.596;2022-11-18T05:29:11;5.40;99.90
21662;DHT22;10992;48.170;8.596;2022-11-18T05:31:39;5.40;99.90
21662;DHT22;10992;48.170;8.596;2022-11-18T05:34:05;5.30;99.90
21662;DHT22;10992;48.170;8.596;2022-11-18T05:36:32;5.30;99.90
21662;DHT22;10992;48.170;8.596;2022-11-18T05:38:59;5.30;99.90
21662;DHT22;10992;48.170;8.596;2022-11-18T05:41:26;5.20;99.90
21662;DHT22;10992;48.170;8.596;2022-11-18T05:44:25;5.10;99.90
21662;DHT22;10992;48.170;8.596;2022-11-18T05:46:52;5.00;99.90
21662;DHT22;10992;48.170;8.596;2022-11-18T05:49:20;4.90;99.90
21662;DHT22;10992;48.170;8.596;2022-11-18T05:51:47;4.80;99.90
21662;DHT22;10992;48.170;8.596;2022-11-18T05:54:15;4.60;99.90
21662;DHT22;10992;48.170;8.596;2022-11-18T05:56:43;4.50;99.90
21662;DHT22;10992;48.170;8.596;2022-11-18T05:59:13;4.50;99.90
21662;DHT22;10992;48.170;8.596;2022-11-18T06:02:24;4.50;99.90
21662;DHT22;10992;48.170;8.596;2022-11-18T06:04:58;4.60;99.90
21662;DHT22;10992;48.170;8.596;2022-11-18T06:07:40;4.70;99.90
21662;DHT22;10992;48.170;8.596;2022-11-18T06:10:17;4.70;99.90
21662;DHT22;10992;48.170;8.596;2022-11-18T06:12:47;4.70;99.90
21662;DHT22;10992;48.170;8.596;2022-11-18T06:15:27;4.60;99.90
21662;DHT22;10992;48.170;8.596;2022-11-18T06:17:59;4.60;99.90
21662;DHT22;10992;48.170;8.596;2022-11-18T06:20:28;4.60;99.90
21662;DHT22;10992;48.170;8.596;2022-11-18T06:22:56;4.60;99.90
21662;DHT22;10992;48.170;8.596;2022-11-18T06:25:24;4.60;99.90
21662;DHT22;10992;48.170;8.596;2022-11-18T06:27:51;4.70;99.90
21662;DHT22;10992;48.170;8.596;2022-11-18T06:30:19;4.60;99.90
21662;DHT22;10992;48.170;8.596;2022-11-18T06:32:46;4.60;99.90
21662;DHT22;10992;48.170;8.596;2022-11-18T06:35:13;4.60;99.90
21662;DHT22;10992;48.170;8.596;2022-11-18T06:37:40;4.60;99.90
21662;DHT22;10992;48.170;8.596;2022-11-18T06:40:07;4.60;99.90
21662;DHT22;10992;48.170;8.596;2022-11-18T06:42:34;4.70;99.90
21662;DHT22;10992;48.170;8.596;2022-11-18T06:45:19;4.70;99.90
21662;DHT22;10992;48.170;8.596;2022-11-18T06:47:46;4.70;99.90
21662;DHT22;10992;48.170;8.596;2022-11-18T06:50:14;5.00;99.90
21662;DHT22;10992;48.170;8.596;2022-11-18T06:52:40;5.00;99.90
21662;DHT22;10992;48.170;8.596;2022-11-18T06:55:08;5.30;99.90
21662;DHT22;10992;48.170;8.596;2022-11-18T06:57:34;5.50;99.90
21662;DHT22;10992;48.170;8.596;2022-11-18T07:00:02;5.60;99.90
21662;DHT22;10992;48.170;8.596;2022-11-18T07:02:29;5.40;99.90
21662;DHT22;10992;48.170;8.596;2022-11-18T07:04:56;5.30;99.90
21662;DHT22;10992;48.170;8.596;2022-11-18T07:07:23;5.20;99.90
21662;DHT22;10992;48.170;8.596;2022-11-18T07:09:50;5.20;99.90
21662;DHT22;10992;48.170;8.596;2022-11-18T07:12:16;5.20;99.90
21662;DHT22;10992;48.170;8.596;2022-11-18T07:14:44;5.20;99.90
21662;DHT22;10992;48.170;8.596;2022-11-18T07:17:10;5.20;99.90
21662;DHT22;10992;48.170;8.596;2022-11-18T07:19:38;5.20;99.90
21662;DHT22;10992;48.170;8.596;2022-11-18T07:22:05;5.30;99.90
21662;DHT22;10992;48.170;8.596;2022-11-18T07:24:33;5.40;99.90
21662;DHT22;10992;48.170;8.596;2022-11-18T07:27:00;5.50;99.90
21662;DHT22;10992;48.170;8.596;2022-11-18T07:29:27;5.60;99.90
21662;DHT22;10992;48.170;8.596;2022-11-18T07:31:54;5.60;99.90
21662;DHT22;10992;48.170;8.596;2022-11-18T07:34:20;5.60;99.90
21662;DHT22;10992;48.170;8.596;2022-11-18T07:36:50;5.70;99.90
21662;DHT22;10992;48.170;8.596;2022-11-18T07:39:17;5.80;99.90
21662;DHT22;10992;48.170;8.596;2022-11-18T07:41:44;5.90;99.90
21662;DHT22;10992;48.170;8.596;2022-11-18T07:44:12;6.00;99.90
21662;DHT22;10992;48.170;8.596;2022-11-18T07:46:39;6.20;99.90
21662;DHT22;10992;48.170;8.596;2022-11-18T07:49:07;6.50;99.90
21662;DHT22;10992;48.170;8.596;2022-11-18T07:51:36;7.10;99.90
21662;DHT22;10992;48.170;8.596;2022-11-18T07:54:12;7.70;99.90
21662;DHT22;10992;48.170;8.596;2022-11-18T07:56:39;8.50;99.90
21662;DHT22;10992;48.170;8.596;2022-11-18T07:59:06;8.50;99.90
21662;DHT22;10992;48.170;8.596;2022-11-18T08:01:34;8.50;99.90
21662;DHT22;10992;48.170;8.596;2022-11-18T08:04:06;8.40;99.90
21662;DHT22;10992;48.170;8.596;2022-11-18T08:06:33;8.10;99.90
21662;DHT22;10992;48.170;8.596;2022-11-18T08:09:01;7.90;99.90
21662;DHT22;10992;48.170;8.596;2022-11-18T08:11:28;7.70;99.90
21662;DHT22;10992;48.170;8.596;2022-11-18T08:13:55;7.70;99.90
21662;DHT22;10992;48.170;8.596;2022-11-18T08:16:24;7.80;99.90
21662;DHT22;10992;48.170;8.596;2022-11-18T08:18:51;7.70;99.90
21662;DHT22;10992;48.170;8.596;2022-11-18T08:21:20;7.80;99.90
21662;DHT22;10992;48.170;8.596;2022-11-18T08:23:53;7.90;99.90
21662;DHT22;10992;48.170;8.596;2022-11-18T08:26:20;7.90;99.90
21662;DHT22;10992;48.170;8.596;2022-11-18T08:28:47;7.90;99.90
21662;DHT22;10992;48.170;8.596;2022-11-18T08:31:17;7.90;99.90
21662;DHT22;10992;48.170;8.596;2022-11-18T08:33:45;7.90;99.90
21662;DHT22;10992;48.170;8.596;2022-11-18T08:36:15;7.90;99.90
21662;DHT22;10992;48.170;8.596;2022-11-18T08:38:43;7.80;99.90
21662;DHT22;10992;48.170;8.596;2022-11-18T08:41:16;7.80;99.90
21662;DHT22;10992;48.170;8.596;2022-11-18T08:43:43;7.50;99.90
21662;DHT22;10992;48.170;8.596;2022-11-18T08:46:10;7.50;99.90
21662;DHT22;10992;48.170;8.596;2022-11-18T08:48:37;7.40;99.90
21662;DHT22;10992;48.170;8.596;2022-11-18T08:51:04;7.50;99.90
21662;DHT22;10992;48.170;8.596;2022-11-18T08:53:31;7.50;99.90
21662;DHT22;10992;48.170;8.596;2022-11-18T08:55:59;7.40;99.90
21662;DHT22;10992;48.170;8.596;2022-11-18T08:58:27;7.40;99.90
21662;DHT22;10992;48.170;8.596;2022-11-18T09:00:54;7.40;99.90
21662;DHT22;10992;48.170;8.596;2022-11-18T09:03:21;7.40;99.90
21662;DHT22;10992;48.170;8.596;2022-11-18T09:05:48;7.40;99.90
21662;DHT22;10992;48.170;8.596;2022-11-18T09:08:15;7.40;99.90
21662;DHT22;10992;48.170;8.596;2022-11-18T09:10:42;7.60;99.90
21662;DHT22;10992;48.170;8.596;2022-11-18T09:13:09;7.50;99.90
21662;DHT22;10992;48.170;8.596;2022-11-18T09:16:00;7.60;99.90
21662;DHT22;10992;48.170;8.596;2022-11-18T09:18:28;7.50;99.90
21662;DHT22;10992;48.170;8.596;2022-11-18T09:21:02;7.50;99.90
21662;DHT22;10992;48.170;8.596;2022-11-18T09:23:31;7.40;99.90
21662;DHT22;10992;48.170;8.596;2022-11-18T09:26:08;7.40;99.90
21662;DHT22;10992;48.170;8.596;2022-11-18T09:28:36;7.50;99.90
21662;DHT22;10992;48.170;8.596;2022-11-18T09:31:08;7.50;99.90
21662;DHT22;10992;48.170;8.596;2022-11-18T09:33:36;7.50;99.90
21662;DHT22;10992;48.170;8.596;2022-11-18T09:36:09;7.70;99.90
21662;DHT22;10992;48.170;8.596;2022-11-18T09:38:36;7.70;99.90
21662;DHT22;10992;48.170;8.596;2022-11-18T09:44:20;7.60;99.90
21662;DHT22;10992;48.170;8.596;2022-11-18T09:49:36;7.60;99.90
21662;DHT22;10992;48.170;8.596;2022-11-18T09:52:12;7.60;99.90
21662;DHT22;10992;48.170;8.596;2022-11-18T09:54:42;7.70;99.90
21662;DHT22;10992;48.170;8.596;2022-11-18T09:57:16;7.80;99.90
21662;DHT22;10992;48.170;8.596;2022-11-18T09:59:45;7.80;99.90
21662;DHT22;10992;48.170;8.596;2022-11-18T10:04:39;7.70;99.90
21662;DHT22;10992;48.170;8.596;2022-11-18T10:07:15;8.20;99.90
21662;DHT22;10992;48.170;8.596;2022-11-18T10:09:47;8.60;99.90
21662;DHT22;10992;48.170;8.596;2022-11-18T10:12:24;8.90;99.90
21662;DHT22;10992;48.170;8.596;2022-11-18T10:15:21;8.90;99.90
21662;DHT22;10992;48.170;8.596;2022-11-18T10:23:25;8.80;99.90
21662;DHT22;10992;48.170;8.596;2022-11-18T10:25:55;8.70;99.90
21662;DHT22;10992;48.170;8.596;2022-11-18T10:28:27;8.50;99.90
21662;DHT22;10992;48.170;8.596;2022-11-18T10:31:05;8.30;99.90
21662;DHT22;10992;48.170;8.596;2022-11-18T10:33:33;8.30;99.90
21662;DHT22;10992;48.170;8.596;2022-11-18T10:39:05;8.30;99.90
21662;DHT22;10992;48.170;8.596;2022-11-18T10:41:48;8.30;99.90
21662;DHT22;10992;48.170;8.596;2022-11-18T10:44:41;8.50;99.90
21662;DHT22;10992;48.170;8.596;2022-11-18T10:47:27;8.60;99.90
21662;DHT22;10992;48.170;8.596;2022-11-18T10:49:59;8.50;99.90
21662;DHT22;10992;48.170;8.596;2022-11-18T10:52:28;8.20;99.90
21662;DHT22;10992;48.170;8.596;2022-11-18T10:55:18;8.20;99.90
21662;DHT22;10992;48.170;8.596;2022-11-18T10:57:47;8.30;99.90
21662;DHT22;10992;48.170;8.596;2022-11-18T11:03:24;8.60;99.90
21662;DHT22;10992;48.170;8.596;2022-11-18T11:06:28;8.60;99.90
21662;DHT22;10992;48.170;8.596;2022-11-18T11:16:48;8.30;99.90
21662;DHT22;10992;48.170;8.596;2022-11-18T11:19:18;8.20;99.90
21662;DHT22;10992;48.170;8.596;2022-11-18T11:21:48;8.10;99.90
21662;DHT22;10992;48.170;8.596;2022-11-18T11:24:15;8.00;99.90
21662;DHT22;10992;48.170;8.596;2022-11-18T11:27:18;8.20;99.90
21662;DHT22;10992;48.170;8.596;2022-11-18T11:30:27;8.50;99.90
21662;DHT22;10992;48.170;8.596;2022-11-18T11:33:25;8.60;99.90
21662;DHT22;10992;48.170;8.596;2022-11-18T11:41:19;8.40;99.90
21662;DHT22;10992;48.170;8.596;2022-11-18T11:56:12;8.20;99.90
21662;DHT22;10992;48.170;8.596;2022-11-18T12:04:52;8.50;99.90
21662;DHT22;10992;48.170;8.596;2022-11-18T12:07:21;8.50;99.90
21662;DHT22;10992;48.170;8.596;2022-11-18T12:12:32;9.10;99.90
21662;DHT22;10992;48.170;8.596;2022-11-18T12:15:24;9.40;99.90
21662;DHT22;10992;48.170;8.596;2022-11-18T12:18:27;9.40;99.90
21662;DHT22;10992;48.170;8.596;2022-11-18T12:20:55;10.00;99.90
21662;DHT22;10992;48.170;8.596;2022-11-18T12:23:27;10.00;99.90
21662;DHT22;10992;48.170;8.596;2022-11-18T12:26:33;10.20;99.90
21662;DHT22;10992;48.170;8.596;2022-11-18T12:31:48;10.70;99.90
21662;DHT22;10992;48.170;8.596;2022-11-18T12:34:30;10.90;99.90
21662;DHT22;10992;48.170;8.596;2022-11-18T12:39:53;11.30;99.90
21662;DHT22;10992;48.170;8.596;2022-11-18T12:42:39;11.30;99.90
21662;DHT22;10992;48.170;8.596;2022-11-18T12:48:26;11.40;99.90
21662;DHT22;10992;48.170;8.596;2022-11-18T12:50:55;11.10;99.90
21662;DHT22;10992;48.170;8.596;2022-11-18T12:53:30;10.70;99.90
21662;DHT22;10992;48.170;8.596;2022-11-18T12:55:58;10.40;99.90
21662;DHT22;10992;48.170;8.596;2022-11-18T12:58:25;9.80;99.90
21662;DHT22;10992;48.170;8.596;2022-11-18T13:01:14;9.60;99.90
21662;DHT22;10992;48.170;8.596;2022-11-18T13:03:42;9.30;99.90
21662;DHT22;10992;48.170;8.596;2022-11-18T13:08:54;9.20;99.90
21662;DHT22;10992;48.170;8.596;2022-11-18T13:11:24;9.30;99.90
21662;DHT22;10992;48.170;8.596;2022-11-18T13:14:30;9.20;99.90
21662;DHT22;10992;48.170;8.596;2022-11-18T13:17:32;8.90;99.90
21662;DHT22;10992;48.170;8.596;2022-11-18T13:20:38;8.70;99.90
21662;DHT22;10992;48.170;8.596;2022-11-18T13:26:29;8.30;99.90
21662;DHT22;10992;48.170;8.596;2022-11-18T13:29:14;8.00;99.90
21662;DHT22;10992;48.170;8.596;2022-11-18T13:34:24;7.60;99.90
21662;DHT22;10992;48.170;8.596;2022-11-18T13:36:55;7.20;99.90
21662;DHT22;10992;48.170;8.596;2022-11-18T13:39:31;6.90;99.90
21662;DHT22;10992;48.170;8.596;2022-11-18T13:44:32;6.60;99.90
21662;DHT22;10992;48.170;8.596;2022-11-18T13:52:41;6.20;99.90
21662;DHT22;10992;48.170;8.596;2022-11-18T13:55:20;6.20;99.90
21662;DHT22;10992;48.170;8.596;2022-11-18T13:57:51;6.30;99.90
21662;DHT22;10992;48.170;8.596;2022-11-18T14:00:24;6.30;99.90
21662;DHT22;10992;48.170;8.596;2022-11-18T14:02:55;6.30;99.90
21662;DHT22;10992;48.170;8.596;2022-11-18T14:05:24;6.30;99.90
21662;DHT22;10992;48.170;8.596;2022-11-18T14:08:03;6.30;99.90
21662;DHT22;10992;48.170;8.596;2022-11-18T14:10:42;6.30;99.90
21662;DHT22;10992;48.170;8.596;2022-11-18T14:13:24;6.30;99.90
21662;DHT22;10992;48.170;8.596;2022-11-18T14:15:54;6.30;99.90
21662;DHT22;10992;48.170;8.596;2022-11-18T14:18:35;6.30;99.90
21662;DHT22;10992;48.170;8.596;2022-11-18T14:21:03;6.30;99.90
21662;DHT22;10992;48.170;8.596;2022-11-18T14:23:33;6.30;99.90
21662;DHT22;10992;48.170;8.596;2022-11-18T14:26:03;6.10;99.90
21662;DHT22;10992;48.170;8.596;2022-11-18T14:28:33;6.10;99.90
21662;DHT22;10992;48.170;8.596;2022-11-18T14:31:24;6.00;99.90
21662;DHT22;10992;48.170;8.596;2022-11-18T14:36:39;6.00;99.90
21662;DHT22;10992;48.170;8.596;2022-11-18T14:39:21;5.90;99.90
21662;DHT22;10992;48.170;8.596;2022-11-18T14:41:53;5.80;99.90
21662;DHT22;10992;48.170;8.596;2022-11-18T14:44:22;5.70;99.90
21662;DHT22;10992;48.170;8.596;2022-11-18T14:46:57;5.70;99.90
21662;DHT22;10992;48.170;8.596;2022-11-18T14:49:26;5.70;99.90
21662;DHT22;10992;48.170;8.596;2022-11-18T14:51:53;5.70;99.90
21662;DHT22;10992;48.170;8.596;2022-11-18T14:54:22;5.60;99.90
21662;DHT22;10992;48.170;8.596;2022-11-18T14:56:57;5.60;99.90
21662;DHT22;10992;48.170;8.596;2022-11-18T14:59:25;5.60;99.90
21662;DHT22;10992;48.170;8.596;2022-11-18T15:01:53;5.70;99.90
21662;DHT22;10992;48.170;8.596;2022-11-18T15:04:22;5.60;99.90
21662;DHT22;10992;48.170;8.596;2022-11-18T15:06:50;5.50;99.90
21662;DHT22;10992;48.170;8.596;2022-11-18T15:09:17;5.40;99.90
21662;DHT22;10992;48.170;8.596;2022-11-18T15:11:44;5.30;99.90
21662;DHT22;10992;48.170;8.596;2022-11-18T15:14:11;5.20;99.90
21662;DHT22;10992;48.170;8.596;2022-11-18T15:16:38;5.10;99.90
21662;DHT22;10992;48.170;8.596;2022-11-18T15:19:06;5.00;99.90
21662;DHT22;10992;48.170;8.596;2022-11-18T15:21:37;4.90;99.90
21662;DHT22;10992;48.170;8.596;2022-11-18T15:24:05;4.80;99.90
21662;DHT22;10992;48.170;8.596;2022-11-18T15:26:38;4.60;99.90
21662;DHT22;10992;48.170;8.596;2022-11-18T15:29:18;4.50;99.90
21662;DHT22;10992;48.170;8.596;2022-11-18T15:31:46;4.40;99.90
21662;DHT22;10992;48.170;8.596;2022-11-18T15:34:13;4.30;99.90
21662;DHT22;10992;48.170;8.596;2022-11-18T15:36:40;4.20;99.90
21662;DHT22;10992;48.170;8.596;2022-11-18T15:39:08;4.20;99.90
21662;DHT22;10992;48.170;8.596;2022-11-18T15:41:37;4.30;99.90
21662;DHT22;10992;48.170;8.596;2022-11-18T15:44:04;4.40;99.90
21662;DHT22;10992;48.170;8.596;2022-11-18T15:46:31;4.40;99.90
21662;DHT22;10992;48.170;8.596;2022-11-18T15:49:01;4.50;99.90
21662;DHT22;10992;48.170;8.596;2022-11-18T15:51:29;4.60;99.90
21662;DHT22;10992;48.170;8.596;2022-11-18T15:53:56;4.70;99.90
21662;DHT22;10992;48.170;8.596;2022-11-18T15:56:26;4.80;99.90
21662;DHT22;10992;48.170;8.596;2022-11-18T15:58:58;4.90;99.90
21662;DHT22;10992;48.170;8.596;2022-11-18T16:01:28;4.90;99.90
21662;DHT22;10992;48.170;8.596;2022-11-18T16:03:55;4.90;99.90
21662;DHT22;10992;48.170;8.596;2022-11-18T16:06:23;5.00;99.90
21662;DHT22;10992;48.170;8.596;2022-11-18T16:08:50;5.10;99.90
21662;DHT22;10992;48.170;8.596;2022-11-18T16:11:24;5.10;99.90
21662;DHT22;10992;48.170;8.596;2022-11-18T16:14:12;5.10;99.90
21662;DHT22;10992;48.170;8.596;2022-11-18T16:16:40;5.10;99.90
21662;DHT22;10992;48.170;8.596;2022-11-18T16:19:09;5.10;99.90
21662;DHT22;10992;48.170;8.596;2022-11-18T16:21:39;5.10;99.90
21662;DHT22;10992;48.170;8.596;2022-11-18T16:24:08;5.10;99.90
21662;DHT22;10992;48.170;8.596;2022-11-18T16:26:36;5.10;99.90
21662;DHT22;10992;48.170;8.596;2022-11-18T16:29:04;5.10;99.90
21662;DHT22;10992;48.170;8.596;2022-11-18T16:31:31;5.10;99.90
21662;DHT22;10992;48.170;8.596;2022-11-18T16:34:22;5.10;99.90
21662;DHT22;10992;48.170;8.596;2022-11-18T16:36:53;5.00;99.90
21662;DHT22;10992;48.170;8.596;2022-11-18T16:39:22;4.80;99.90
21662;DHT22;10992;48.170;8.596;2022-11-18T16:41:51;4.80;99.90
21662;DHT22;10992;48.170;8.596;2022-11-18T16:44:18;4.70;99.90
21662;DHT22;10992;48.170;8.596;2022-11-18T16:46:48;4.60;99.90
21662;DHT22;10992;48.170;8.596;2022-11-18T16:49:17;4.60;99.90
21662;DHT22;10992;48.170;8.596;2022-11-18T16:51:46;4.60;99.90
21662;DHT22;10992;48.170;8.596;2022-11-18T16:56:48;4.50;99.90
21662;DHT22;10992;48.170;8.596;2022-11-18T16:59:18;4.50;99.90
21662;DHT22;10992;48.170;8.596;2022-11-18T17:01:51;4.50;99.90
21662;DHT22;10992;48.170;8.596;2022-11-18T17:04:19;4.40;99.90
21662;DHT22;10992;48.170;8.596;2022-11-18T17:06:46;4.40;99.90
21662;DHT22;10992;48.170;8.596;2022-11-18T17:09:15;4.30;99.90
21662;DHT22;10992;48.170;8.596;2022-11-18T17:11:44;4.20;99.90
21662;DHT22;10992;48.170;8.596;2022-11-18T17:14:11;4.20;99.90
21662;DHT22;10992;48.170;8.596;2022-11-18T17:16:38;4.10;99.90
21662;DHT22;10992;48.170;8.596;2022-11-18T17:19:05;4.00;99.90
21662;DHT22;10992;48.170;8.596;2022-11-18T17:21:37;4.00;99.90
21662;DHT22;10992;48.170;8.596;2022-11-18T17:24:04;3.80;99.90
21662;DHT22;10992;48.170;8.596;2022-11-18T17:26:32;3.70;99.90
21662;DHT22;10992;48.170;8.596;2022-11-18T17:28:59;3.60;99.90
21662;DHT22;10992;48.170;8.596;2022-11-18T17:31:25;3.60;99.90
21662;DHT22;10992;48.170;8.596;2022-11-18T17:33:53;3.50;99.90
21662;DHT22;10992;48.170;8.596;2022-11-18T17:36:23;3.40;99.90
21662;DHT22;10992;48.170;8.596;2022-11-18T17:38:52;3.50;99.90
21662;DHT22;10992;48.170;8.596;2022-11-18T17:41:22;3.60;99.90
21662;DHT22;10992;48.170;8.596;2022-11-18T17:44:09;3.60;99.90
21662;DHT22;10992;48.170;8.596;2022-11-18T17:46:36;3.30;99.90
21662;DHT22;10992;48.170;8.596;2022-11-18T17:49:15;3.30;99.90
21662;DHT22;10992;48.170;8.596;2022-11-18T17:51:43;3.20;99.90
21662;DHT22;10992;48.170;8.596;2022-11-18T17:54:11;3.00;99.90
21662;DHT22;10992;48.170;8.596;2022-11-18T17:56:40;2.90;99.90
21662;DHT22;10992;48.170;8.596;2022-11-18T17:59:06;3.10;99.90
21662;DHT22;10992;48.170;8.596;2022-11-18T18:01:33;3.30;99.90
21662;DHT22;10992;48.170;8.596;2022-11-18T18:04:01;3.20;99.90
21662;DHT22;10992;48.170;8.596;2022-11-18T18:06:29;3.20;99.90
21662;DHT22;10992;48.170;8.596;2022-11-18T18:08:56;3.20;99.90
21662;DHT22;10992;48.170;8.596;2022-11-18T18:11:24;3.30;99.90